Time;durP1;ratioP1;P1;durP2;ratioP2;P2;SDS_P1;SDS_P2;PMS_P1;PMS_P2;Temp;Humidity;BMP_temperature;BMP_pressure;BME280_temperature;BME280_humidity;BME280_pressure;Samples;Min_cycle;Max_cycle;Signal;HPM_P1;HPM_P2
2023/05/11 00:00:15;;;;;;;24.63;21.23;;;14.00;99.90;;;13.52;89.70;100768.22;5013749;28;20223;-75
2023/05/11 00:02:47;;;;;;;25.10;20.93;;;13.90;99.90;;;13.53;90.00;100767.19;5013411;28;20644;-75
2023/05/11 00:05:20;;;;;;;24.20;20.27;;;13.90;99.90;;;13.56;89.89;100766.81;5013398;28;20230;-75
2023/05/11 00:07:52;;;;;;;24.73;19.67;;;14.00;99.90;;;13.54;89.62;100774.25;5014904;28;20203;-76
2023/05/11 00:10:24;;;;;;;24.73;20.07;;;13.90;99.90;;;13.52;89.89;100773.59;5017551;28;20227;-76
2023/05/11 00:12:56;;;;;;;25.17;21.23;;;13.90;99.90;;;13.50;89.85;100772.09;5017621;28;20199;-76
2023/05/11 00:15:28;;;;;;;24.20;20.37;;;13.90;99.90;;;13.48;90.04;100768.75;5017580;28;20199;-76
2023/05/11 00:18:00;;;;;;;21.03;18.83;;;13.90;99.90;;;13.47;89.67;100767.06;5017315;28;20202;-76
2023/05/11 00:20:33;;;;;;;23.40;19.13;;;13.90;99.90;;;13.47;89.79;100764.38;5017368;28;20230;-75
2023/05/11 00:23:05;;;;;;;22.07;18.97;;;13.90;99.90;;;13.45;89.50;100767.25;5017428;28;20188;-76
2023/05/11 00:25:38;;;;;;;22.93;20.43;;;13.90;99.90;;;13.45;89.63;100759.19;5017451;28;20196;-76
2023/05/11 00:28:10;;;;;;;21.70;19.40;;;13.90;99.90;;;13.46;90.26;100765.41;5017394;28;20192;-76
2023/05/11 00:30:44;;;;;;;22.17;19.67;;;13.80;99.90;;;13.43;90.02;100771.97;5016941;28;20728;-76
2023/05/11 00:33:16;;;;;;;21.07;18.87;;;13.80;99.90;;;13.44;90.58;100770.13;5017066;28;20219;-76
2023/05/11 00:35:49;;;;;;;21.63;19.27;;;13.90;99.90;;;13.41;90.19;100760.56;5017325;28;20191;-76
2023/05/11 00:38:21;;;;;;;21.17;18.27;;;13.80;99.90;;;13.42;89.54;100775.69;5017293;28;20246;-76
2023/05/11 00:40:53;;;;;;;23.03;19.03;;;13.80;99.90;;;13.40;90.54;100766.94;5017078;28;20223;-76
2023/05/11 00:43:25;;;;;;;22.63;19.30;;;13.80;99.90;;;13.38;90.36;100769.00;5016873;28;20671;-76
2023/05/11 00:45:56;;;;;;;24.77;19.23;;;13.80;99.90;;;13.37;90.75;100772.69;5017306;28;20269;-76
2023/05/11 00:48:28;;;;;;;21.73;19.23;;;13.80;99.90;;;13.35;90.58;100769.34;5017211;28;20211;-76
2023/05/11 00:51:03;;;;;;;23.93;19.43;;;13.80;99.90;;;13.37;90.07;100766.47;5017033;28;20239;-76
2023/05/11 00:53:36;;;;;;;22.60;19.30;;;13.80;99.90;;;13.36;90.18;100764.78;5016953;28;20274;-76
2023/05/11 00:56:10;;;;;;;20.70;18.50;;;13.80;99.90;;;13.37;90.05;100764.63;5016665;28;20558;-76
2023/05/11 00:58:42;;;;;;;23.40;19.80;;;13.80;99.90;;;13.35;89.72;100763.97;5016898;28;20195;-76
2023/05/11 01:01:16;;;;;;;22.50;18.97;;;13.80;99.90;;;13.34;89.83;100773.03;5016680;28;20227;-76
2023/05/11 01:03:49;;;;;;;23.40;19.17;;;13.80;99.90;;;13.35;90.00;100769.34;5016815;28;20214;-77
2023/05/11 01:06:35;;;;;;;21.03;18.83;;;13.80;99.90;;;13.35;89.98;100765.81;5016446;28;20203;-76
2023/05/11 01:09:14;;;;;;;21.47;19.17;;;13.80;99.90;;;13.35;90.07;100769.34;5016288;28;20669;-76
2023/05/11 01:11:53;;;;;;;21.63;18.60;;;13.70;99.90;;;13.32;90.86;100775.06;5016560;28;20218;-76
2023/05/11 01:14:34;;;;;;;22.67;19.77;;;13.70;99.90;;;13.31;90.57;100770.72;5016644;28;20195;-76
2023/05/11 01:17:21;;;;;;;21.20;18.40;;;13.70;99.90;;;13.30;90.06;100769.03;5016834;28;20192;-76
2023/05/11 01:20:02;;;;;;;20.63;18.43;;;13.70;99.90;;;13.30;90.01;100770.88;5016293;28;20223;-76
2023/05/11 01:22:56;;;;;;;22.27;19.67;;;13.70;99.90;;;13.30;91.25;100776.25;5016396;28;20198;-75
2023/05/11 01:25:50;;;;;;;21.40;19.10;;;13.70;99.90;;;13.28;91.47;100771.06;5016627;28;20695;-76
2023/05/11 01:28:58;;;;;;;23.10;19.47;;;13.70;99.90;;;13.30;91.36;100771.72;5016771;28;20684;-76
2023/05/11 01:31:33;;;;;;;20.90;17.57;;;13.70;99.90;;;13.29;90.66;100772.72;5011111;28;20231;-76
2023/05/11 01:34:13;;;;;;;20.20;18.10;;;13.70;99.90;;;13.28;90.49;100773.75;5015972;28;20246;-76
2023/05/11 01:36:53;;;;;;;20.27;18.10;;;13.70;99.90;;;13.30;91.42;100781.63;5016195;28;20196;-76
2023/05/11 01:39:35;;;;;;;21.10;18.23;;;13.70;99.90;;;13.29;90.59;100774.59;5016020;28;20282;-76
2023/05/11 01:42:12;;;;;;;20.83;18.63;;;13.70;99.90;;;13.26;90.89;100775.75;5015855;28;20567;-76
2023/05/11 01:44:48;;;;;;;20.43;18.23;;;13.70;99.90;;;13.25;91.41;100775.97;5016062;28;20195;-77
2023/05/11 01:47:25;;;;;;;20.73;17.60;;;13.60;99.90;;;13.26;91.03;100774.91;5016028;28;20187;-77
2023/05/11 01:50:00;;;;;;;21.33;18.83;;;13.70;99.90;;;13.24;90.74;100774.28;5015595;28;20254;-76
2023/05/11 01:52:35;;;;;;;20.57;18.47;;;13.60;99.90;;;13.22;90.37;100777.13;5016124;28;20220;-76
2023/05/11 01:55:10;;;;;;;19.90;17.80;;;13.70;99.90;;;13.21;91.19;100778.16;5015863;28;20195;-76
2023/05/11 01:57:42;;;;;;;20.27;18.17;;;13.60;99.90;;;13.19;90.53;100774.78;5015639;28;20552;-76
2023/05/11 02:00:16;;;;;;;19.30;17.27;;;13.60;99.90;;;13.18;90.79;100779.31;5015343;28;20720;-76
2023/05/11 02:02:51;;;;;;;21.00;18.50;;;13.60;99.90;;;13.15;91.13;100774.31;5015690;28;20198;-76
2023/05/11 02:05:42;;;;;;;18.57;16.60;;;13.60;99.90;;;13.15;90.77;100778.88;5015671;28;20223;-76
2023/05/11 02:08:16;;;;;;;19.47;17.37;;;13.60;99.90;;;13.15;90.21;100784.25;5015550;28;20257;-76
2023/05/11 02:10:50;;;;;;;18.97;16.97;;;13.60;99.90;;;13.15;90.88;100781.56;5015339;28;20234;-76
2023/05/11 02:13:27;;;;;;;17.53;15.73;;;13.60;99.90;;;13.15;90.61;100784.25;5015464;28;20188;-76
2023/05/11 02:16:01;;;;;;;17.23;15.43;;;13.60;99.90;;;13.11;91.17;100789.13;5015367;28;20187;-76
2023/05/11 02:18:38;;;;;;;16.83;15.03;;;13.50;99.90;;;13.11;90.63;100783.75;5015468;28;20253;-76
2023/05/11 02:21:15;;;;;;;17.13;15.33;;;13.50;99.90;;;13.13;91.23;100780.88;5015299;28;20223;-76
2023/05/11 02:23:50;;;;;;;16.50;14.80;;;13.60;99.90;;;13.12;90.69;100784.56;5014847;28;20647;-76
2023/05/11 02:26:22;;;;;;;16.77;14.97;;;13.50;99.90;;;13.10;90.88;100786.59;5014834;28;20622;-76
2023/05/11 02:28:54;;;;;;;15.10;13.50;;;13.50;99.90;;;13.08;91.18;100785.94;5015262;28;20200;-76
2023/05/11 02:31:32;;;;;;;15.40;13.80;;;13.50;99.90;;;13.06;91.03;100787.94;5014252;28;20285;-76
2023/05/11 02:34:17;;;;;;;14.80;13.10;;;13.50;99.90;;;13.04;91.28;100782.75;5014645;28;20672;-76
2023/05/11 02:36:53;;;;;;;15.60;14.00;;;13.40;99.90;;;13.04;90.08;100789.97;5015030;28;20195;-76
2023/05/11 02:39:31;;;;;;;14.57;13.07;;;13.50;99.90;;;13.04;90.46;100788.13;5014584;28;20649;-76
2023/05/11 02:42:11;;;;;;;14.97;13.47;;;13.50;99.90;;;13.06;91.01;100790.63;5014857;28;20592;-76
2023/05/11 02:44:45;;;;;;;13.97;12.57;;;13.40;99.90;;;13.02;89.85;100790.13;5014838;28;20206;-76
2023/05/11 02:47:21;;;;;;;13.63;12.23;;;13.40;99.90;;;13.01;89.87;100791.13;5014758;28;20191;-76
2023/05/11 02:49:59;;;;;;;13.43;12.13;;;13.40;99.90;;;13.01;89.68;100787.63;5014764;28;20235;-76
2023/05/11 02:52:34;;;;;;;14.20;12.80;;;13.40;99.90;;;12.98;90.68;100786.13;5014748;28;20222;-76
2023/05/11 02:55:09;;;;;;;13.83;12.40;;;13.40;99.90;;;12.94;91.63;100786.66;5014744;28;20206;-76
2023/05/11 02:57:42;;;;;;;13.10;11.77;;;13.30;99.90;;;12.95;90.68;100785.63;5014761;28;20223;-76
2023/05/11 03:00:16;;;;;;;12.93;11.70;;;13.40;99.90;;;12.94;91.26;100782.13;5014574;28;20262;-76
2023/05/11 03:02:48;;;;;;;13.23;11.87;;;13.40;99.90;;;12.94;91.22;100783.97;5014639;28;20191;-76
2023/05/11 03:05:23;;;;;;;12.27;10.70;;;13.40;99.90;;;12.94;90.58;100786.66;5014686;28;20194;-76
2023/05/11 03:07:59;;;;;;;13.70;11.50;;;13.40;99.90;;;12.95;90.13;100791.00;5014512;28;20191;-76
2023/05/11 03:10:32;;;;;;;11.37;10.27;;;13.40;99.90;;;12.93;89.98;100783.13;5014490;28;20239;-76
2023/05/11 03:13:05;;;;;;;12.20;10.83;;;13.40;99.90;;;12.93;90.49;100795.72;5014324;28;20212;-76
2023/05/11 03:15:37;;;;;;;11.87;10.67;;;13.40;99.90;;;12.88;90.19;100784.66;5014356;28;20191;-76
2023/05/11 03:18:11;;;;;;;12.50;10.33;;;13.30;99.90;;;12.89;90.91;100794.38;5014445;28;20192;-76
2023/05/11 03:20:47;;;;;;;11.37;10.37;;;13.30;99.90;;;12.88;90.68;100788.16;5015261;28;20238;-76
2023/05/11 03:23:21;;;;;;;11.00;9.90;;;13.30;99.90;;;12.90;90.16;100794.22;5014373;28;20558;-77
2023/05/11 03:25:53;;;;;;;10.73;9.63;;;13.30;99.90;;;12.89;90.67;100787.19;5014335;28;20191;-76
2023/05/11 03:28:27;;;;;;;13.20;10.43;;;13.30;99.90;;;12.88;90.69;100790.88;5014356;28;20609;-76
2023/05/11 03:30:59;;;;;;;10.60;9.50;;;13.30;99.90;;;12.87;90.12;100791.06;5014208;28;20231;-76
2023/05/11 03:33:31;;;;;;;10.77;9.77;;;13.30;99.90;;;12.87;90.55;100796.44;5013691;28;20231;-76
2023/05/11 03:36:09;;;;;;;11.17;9.97;;;13.30;99.90;;;12.87;89.72;100791.06;5013695;28;20669;-76
2023/05/11 03:38:41;;;;;;;10.33;9.33;;;13.30;99.90;;;12.86;90.35;100794.75;5014033;28;20195;-76
2023/05/11 03:41:17;;;;;;;11.27;10.17;;;13.30;99.90;;;12.84;90.47;100792.25;5013753;28;20755;-76
2023/05/11 03:43:52;;;;;;;11.17;10.17;;;13.30;99.90;;;12.82;89.69;100793.41;5013602;28;20554;-76
2023/05/11 03:46:26;;;;;;;13.77;9.77;;;13.20;99.90;;;12.83;90.26;100787.88;5014180;28;20191;-77
2023/05/11 03:48:59;;;;;;;11.83;10.63;;;13.30;99.90;;;12.81;90.23;100787.19;5013899;28;20662;-77
2023/05/11 03:51:34;;;;;;;10.63;9.63;;;13.20;99.90;;;12.80;89.96;100790.91;5014032;28;20277;-76
2023/05/11 03:54:08;;;;;;;13.40;10.97;;;13.20;99.90;;;12.79;90.22;100788.38;5014042;28;20254;-76
2023/05/11 03:56:40;;;;;;;11.30;10.30;;;13.20;99.90;;;12.78;90.43;100784.84;5014121;28;20250;-76
2023/05/11 03:59:16;;;;;;;10.27;9.37;;;13.20;99.90;;;12.80;90.25;100784.69;5013791;28;20191;-76
2023/05/11 04:01:51;;;;;;;11.67;10.57;;;13.20;99.90;;;12.79;90.80;100777.63;5013813;28;20195;-77
2023/05/11 04:04:29;;;;;;;12.03;9.87;;;13.20;99.90;;;12.78;90.71;100781.31;5013975;28;20207;-76
2023/05/11 04:07:03;;;;;;;11.03;9.93;;;13.20;99.90;;;12.78;89.86;100786.69;5013969;28;20191;-76
2023/05/11 04:09:35;;;;;;;11.27;10.27;;;13.20;99.90;;;12.76;90.81;100783.38;5013876;28;20235;-76
2023/05/11 04:12:10;;;;;;;11.33;10.23;;;13.20;99.90;;;12.76;91.11;100788.72;5013529;28;20200;-76
2023/05/11 04:14:42;;;;;;;12.57;10.83;;;13.20;99.90;;;12.75;91.26;100781.69;5013689;28;20195;-76
2023/05/11 04:17:13;;;;;;;11.87;10.30;;;13.20;99.90;;;12.73;91.10;100789.94;5013583;28;20200;-77
2023/05/11 04:19:45;;;;;;;11.80;10.53;;;13.20;99.90;;;12.73;90.97;100787.25;5013468;28;20227;-77
2023/05/11 04:22:18;;;;;;;10.60;9.60;;;13.20;99.90;;;12.73;91.02;100797.16;5013153;28;20211;-77
2023/05/11 04:24:50;;;;;;;10.23;9.23;;;13.20;99.90;;;12.75;90.47;100795.09;5013600;28;20225;-77
2023/05/11 04:27:22;;;;;;;11.00;9.93;;;13.20;99.90;;;12.75;90.84;100795.09;5013587;28;20196;-77
2023/05/11 04:29:55;;;;;;;10.33;9.17;;;13.20;99.90;;;12.74;90.97;100786.22;5013386;28;20582;-76
2023/05/11 04:32:28;;;;;;;10.93;9.83;;;13.10;99.90;;;12.75;90.82;100784.38;5013267;28;20247;-77
2023/05/11 04:34:59;;;;;;;11.33;10.13;;;13.20;99.90;;;12.75;90.85;100797.78;5013463;28;20200;-77
2023/05/11 04:37:32;;;;;;;10.70;9.60;;;13.20;99.90;;;12.75;90.51;100793.25;5013492;28;20242;-77
2023/05/11 04:40:04;;;;;;;10.63;9.63;;;13.20;99.90;;;12.75;90.35;100793.25;5013032;28;20227;-76
2023/05/11 04:42:36;;;;;;;11.10;10.03;;;13.20;99.90;;;12.74;91.00;100796.16;5013332;28;20195;-76
2023/05/11 04:45:10;;;;;;;11.07;9.97;;;13.20;99.90;;;12.74;90.77;100790.78;5013519;28;20194;-76
2023/05/11 04:47:42;;;;;;;11.57;10.00;;;13.20;99.90;;;12.72;90.98;100798.97;5013507;28;20203;-76
2023/05/11 04:50:14;;;;;;;11.27;10.17;;;13.20;99.90;;;12.73;90.46;100805.19;5013201;28;20224;-76
2023/05/11 04:52:48;;;;;;;11.53;10.33;;;13.20;99.90;;;12.74;91.18;100801.50;5013319;28;20220;-77
2023/05/11 04:55:20;;;;;;;11.47;10.37;;;13.20;99.90;;;12.70;90.73;100796.47;5016557;28;20196;-77
2023/05/11 04:57:52;;;;;;;11.50;10.40;;;13.20;99.90;;;12.74;90.84;100804.19;5017377;28;20195;-77
2023/05/11 05:00:23;;;;;;;11.67;10.33;;;13.20;99.90;;;12.73;91.59;100800.66;5016841;28;20232;-76
2023/05/11 05:02:55;;;;;;;11.30;10.20;;;13.20;99.90;;;12.74;91.70;100806.88;5017048;28;20211;-77
2023/05/11 05:05:27;;;;;;;12.20;11.00;;;13.20;99.90;;;12.74;92.23;100799.63;5016436;28;20235;-77
2023/05/11 05:08:00;;;;;;;12.37;11.07;;;13.20;99.90;;;12.73;91.39;100799.81;5016685;28;20201;-77
2023/05/11 05:10:32;;;;;;;13.33;11.20;;;13.20;99.90;;;12.70;92.77;100806.41;5016526;28;20232;-77
2023/05/11 05:13:04;;;;;;;12.50;11.30;;;13.20;99.90;;;12.71;92.40;100808.88;5016348;28;20676;-77
2023/05/11 05:15:36;;;;;;;13.83;12.43;;;13.20;99.90;;;12.73;92.11;100807.88;5016456;28;20188;-77
2023/05/11 05:18:08;;;;;;;14.30;12.90;;;13.20;99.90;;;12.74;93.00;100814.94;5016542;28;20196;-77
2023/05/11 05:20:40;;;;;;;14.03;12.53;;;13.20;99.90;;;12.71;93.13;100819.63;5016066;28;20318;-76
2023/05/11 05:23:13;;;;;;;15.73;13.03;;;13.20;99.90;;;12.71;93.22;100816.09;5016137;28;20637;-77
2023/05/11 05:25:45;;;;;;;15.47;13.90;;;13.20;99.90;;;12.71;94.03;100814.25;5016705;28;20195;-77
2023/05/11 05:28:17;;;;;;;16.43;14.17;;;13.20;99.90;;;12.72;93.38;100815.09;5016270;28;20530;-77
2023/05/11 05:30:48;;;;;;;14.80;13.40;;;13.20;99.90;;;12.74;92.78;100806.88;5016261;28;20234;-77
2023/05/11 05:33:20;;;;;;;17.13;15.33;;;13.20;99.90;;;12.76;93.03;100820.97;5015946;28;20277;-77
2023/05/11 05:35:52;;;;;;;16.33;14.37;;;13.20;99.90;;;12.77;93.51;100828.03;5015801;28;20574;-77
2023/05/11 05:38:25;;;;;;;16.43;14.73;;;13.20;99.90;;;12.76;92.38;100816.44;5016092;28;20191;-77
2023/05/11 05:40:57;;;;;;;17.23;15.57;;;13.20;99.90;;;12.78;93.29;100822.47;5016107;28;20334;-77
2023/05/11 05:43:29;;;;;;;17.83;15.97;;;13.30;99.90;;;12.78;92.85;100824.31;5015930;28;20207;-77
2023/05/11 05:46:01;;;;;;;16.13;14.43;;;13.30;99.90;;;12.78;93.41;100818.94;5015627;28;20562;-77
2023/05/11 05:48:33;;;;;;;18.40;16.50;;;13.20;99.90;;;12.79;93.26;100837.59;5015567;28;20192;-77
2023/05/11 05:51:05;;;;;;;19.17;17.27;;;13.30;99.90;;;12.78;94.27;100835.91;5015548;28;20231;-77
2023/05/11 05:53:38;;;;;;;19.33;17.33;;;13.30;99.90;;;12.77;94.64;100836.09;5016150;28;20219;-77
2023/05/11 05:56:10;;;;;;;18.83;16.93;;;13.30;99.90;;;12.77;94.81;100842.31;5015914;28;20196;-77
2023/05/11 05:58:42;;;;;;;20.57;18.40;;;13.20;99.90;;;12.78;94.77;100840.44;5015711;28;20191;-77
2023/05/11 06:01:14;;;;;;;20.03;18.10;;;13.30;99.90;;;12.81;94.75;100840.94;5015601;28;20228;-77
2023/05/11 06:03:46;;;;;;;19.97;17.90;;;13.30;99.90;;;12.85;94.29;100846.78;5015754;28;20215;-78
2023/05/11 06:06:19;;;;;;;19.90;17.90;;;13.30;99.90;;;12.87;94.49;100848.31;5014110;28;20192;-78
2023/05/11 06:08:53;;;;;;;20.97;18.87;;;13.40;99.90;;;12.89;95.07;100840.06;5015489;28;20194;-77
2023/05/11 06:11:24;;;;;;;20.20;18.10;;;13.40;99.90;;;12.89;94.64;100850.81;5015738;28;20232;-77
2023/05/11 06:13:56;;;;;;;23.60;21.10;;;13.40;99.90;;;12.91;94.80;100848.81;5015426;28;20223;-77
2023/05/11 06:16:29;;;;;;;22.53;20.13;;;13.40;99.90;;;12.92;95.10;100855.84;5015440;28;20192;-77
2023/05/11 06:19:00;;;;;;;25.63;20.80;;;13.40;99.90;;;12.94;94.67;100857.38;5015437;28;20192;-77
2023/05/11 06:21:32;;;;;;;23.53;20.10;;;13.40;99.90;;;12.96;94.74;100849.13;5015432;28;20235;-77
2023/05/11 06:24:05;;;;;;;23.80;20.07;;;13.50;99.90;;;12.95;94.61;100855.50;5015324;28;20191;-77
2023/05/11 06:26:37;;;;;;;26.83;22.23;;;13.40;99.90;;;12.96;95.00;100855.34;5015240;28;20603;-77
2023/05/11 06:29:09;;;;;;;25.37;21.40;;;13.50;99.90;;;12.98;94.79;100849.81;5015229;28;20192;-77
2023/05/11 06:31:41;;;;;;;25.87;20.73;;;13.50;99.90;;;13.01;94.45;100849.47;5015123;28;20203;-77
2023/05/11 06:34:13;;;;;;;20.23;18.00;;;13.50;99.90;;;13.03;94.75;100845.56;5014540;28;20711;-78
2023/05/11 06:36:45;;;;;;;22.43;20.03;;;13.50;99.90;;;13.05;94.65;100848.06;5015112;28;20196;-77
2023/05/11 06:39:18;;;;;;;26.13;22.73;;;13.60;99.90;;;13.06;95.69;100847.06;5014909;28;20203;-77
2023/05/11 06:41:53;;;;;;;26.70;22.47;;;13.60;99.90;;;13.06;95.15;100844.38;5015054;28;20203;-77
2023/05/11 06:44:28;;;;;;;31.83;23.80;;;13.60;99.90;;;13.07;95.57;100844.22;5014869;28;20196;-77
2023/05/11 06:47:00;;;;;;;21.73;19.30;;;13.50;99.90;;;13.07;94.85;100848.75;5014866;28;20191;-77
2023/05/11 06:49:32;;;;;;;25.00;21.20;;;13.60;99.90;;;13.07;95.39;100846.06;5015395;28;20237;-77
2023/05/11 06:52:04;;;;;;;23.33;20.07;;;13.60;99.90;;;13.08;95.01;100850.44;5014753;28;20192;-77
2023/05/11 06:54:37;;;;;;;25.90;22.27;;;13.60;99.90;;;13.11;95.39;100845.59;5014326;28;20680;-77
2023/05/11 06:57:09;;;;;;;26.17;22.13;;;13.60;99.90;;;13.14;95.17;100842.53;5014666;28;20192;-77
2023/05/11 06:59:43;;;;;;;29.23;23.40;;;13.70;99.90;;;13.16;95.68;100847.72;5014877;28;20313;-77
2023/05/11 07:02:15;;;;;;;28.67;22.93;;;13.70;99.90;;;13.17;96.02;100852.09;5014641;28;20207;-77
2023/05/11 07:04:47;;;;;;;27.33;22.30;;;13.70;99.90;;;13.18;95.17;100853.78;5014402;28;20198;-77
2023/05/11 07:07:19;;;;;;;23.90;20.80;;;13.70;99.90;;;13.19;95.58;100847.38;5014587;28;20192;-77
2023/05/11 07:09:52;;;;;;;23.30;19.47;;;13.70;99.90;;;13.21;95.29;100856.13;5014102;28;20716;-77
2023/05/11 07:12:24;;;;;;;24.90;20.50;;;13.70;99.90;;;13.19;95.17;100850.91;5015006;28;20192;-77
2023/05/11 07:14:56;;;;;;;25.93;22.07;;;13.70;99.90;;;13.20;95.36;100857.97;5014672;28;20219;-77
2023/05/11 07:17:28;;;;;;;25.10;20.33;;;13.70;99.90;;;13.20;95.76;100852.59;5014188;28;20192;-77
2023/05/11 07:20:00;;;;;;;23.20;20.17;;;13.70;99.90;;;13.22;95.07;100846.22;5014813;28;20321;-77
2023/05/11 07:22:32;;;;;;;23.03;20.53;;;13.70;99.90;;;13.22;94.96;100855.09;5014413;28;20199;-78
2023/05/11 07:25:05;;;;;;;26.60;21.33;;;13.70;99.90;;;13.23;95.57;100853.25;5014401;28;20188;-76
2023/05/11 07:27:37;;;;;;;23.50;20.33;;;13.70;99.90;;;13.24;95.82;100861.16;5014409;28;20216;-76
2023/05/11 07:30:09;;;;;;;23.67;20.30;;;13.70;99.90;;;13.25;94.99;100864.69;5014318;28;20227;-76
2023/05/11 07:32:41;;;;;;;23.50;19.57;;;13.70;99.90;;;13.25;95.17;100854.78;5014290;28;20215;-77
2023/05/11 07:35:13;;;;;;;26.87;21.47;;;13.80;99.90;;;13.24;95.80;100853.09;5013873;28;20208;-77
2023/05/11 07:37:45;;;;;;;23.70;20.73;;;13.70;99.90;;;13.24;95.71;100855.78;5013894;28;20632;-77
2023/05/11 07:40:19;;;;;;;21.40;19.10;;;13.70;99.90;;;13.28;95.37;100858.94;5014120;28;20238;-76
2023/05/11 07:42:52;;;;;;;21.73;19.13;;;13.80;99.90;;;13.28;95.09;100858.94;5013983;28;20626;-76
2023/05/11 07:45:24;;;;;;;23.27;19.60;;;13.80;99.90;;;13.29;95.68;100856.06;5013801;28;20192;-77
2023/05/11 07:47:56;;;;;;;22.17;19.00;;;13.80;99.90;;;13.31;95.59;100859.44;5013801;28;20195;-77
2023/05/11 07:50:28;;;;;;;22.50;19.80;;;13.80;99.90;;;13.32;96.21;100866.47;5013767;28;20285;-76
2023/05/11 07:53:00;;;;;;;19.07;17.07;;;13.80;99.90;;;13.31;95.54;100859.44;5013704;28;20198;-76
2023/05/11 07:55:34;;;;;;;20.10;17.93;;;13.80;99.90;;;13.32;95.96;100860.28;5013355;28;20215;-76
2023/05/11 07:58:05;;;;;;;19.63;17.00;;;13.80;99.90;;;13.33;95.87;100865.47;5013738;28;20195;-76
2023/05/11 08:00:37;;;;;;;18.23;16.33;;;13.80;99.90;;;13.32;95.24;100871.84;5013680;28;20231;-76
2023/05/11 08:03:09;;;;;;;17.00;14.90;;;13.80;99.90;;;13.26;94.83;100871.72;5013351;28;20607;-77
2023/05/11 08:05:41;;;;;;;14.40;12.97;;;13.70;99.90;;;13.28;95.28;100870.56;5013671;28;20270;-77
2023/05/11 08:08:14;;;;;;;16.93;15.13;;;13.80;99.90;;;13.30;95.31;100873.03;5013730;28;20342;-77
2023/05/11 08:10:47;;;;;;;14.60;13.20;;;13.80;99.90;;;13.30;95.58;100879.25;5013208;28;20230;-76
2023/05/11 08:13:19;;;;;;;14.63;13.03;;;13.80;99.90;;;13.29;95.42;100874.09;5013569;28;20195;-76
2023/05/11 08:15:51;;;;;;;15.53;13.43;;;13.80;99.90;;;13.28;95.03;100875.94;5013640;28;20215;-76
2023/05/11 08:18:26;;;;;;;16.40;14.70;;;13.80;99.90;;;13.30;94.80;100879.25;5013585;28;20216;-76
2023/05/11 08:20:58;;;;;;;16.60;14.83;;;13.80;99.90;;;13.31;95.09;100875.56;5013510;28;20285;-76
2023/05/11 08:23:30;;;;;;;17.13;14.67;;;13.80;99.90;;;13.31;95.17;100869.34;5013508;28;20198;-76
2023/05/11 08:26:04;;;;;;;17.07;14.70;;;13.80;99.90;;;13.33;94.42;100878.06;5013487;28;20188;-77
2023/05/11 08:28:36;;;;;;;17.57;14.97;;;13.80;99.90;;;13.34;94.53;100875.22;5014129;28;20191;-76
2023/05/11 08:31:09;;;;;;;16.93;14.60;;;13.80;99.90;;;13.35;94.64;100874.22;5017532;28;20228;-76
2023/05/11 08:33:40;;;;;;;18.30;15.50;;;13.80;99.90;;;13.37;94.48;100882.09;5016956;28;20219;-77
2023/05/11 08:36:12;;;;;;;16.60;14.37;;;13.90;99.90;;;13.37;94.76;100874.88;5017191;28;20211;-76
2023/05/11 08:38:44;;;;;;;16.20;14.03;;;13.90;99.90;;;13.37;94.90;100880.25;5017188;28;20196;-76
2023/05/11 08:41:17;;;;;;;15.93;13.43;;;13.90;99.90;;;13.36;94.48;100877.72;5017138;28;20242;-77
2023/05/11 08:43:49;;;;;;;16.03;13.17;;;13.90;99.90;;;13.33;95.70;100881.59;5016838;28;20599;-77
2023/05/11 08:46:25;;;;;;;15.73;13.20;;;13.80;99.90;;;13.37;95.13;100880.25;5016682;28;20544;-76
2023/05/11 08:48:58;;;;;;;14.60;12.70;;;13.80;99.90;;;13.36;95.26;100883.94;5017045;28;20278;-77
2023/05/11 08:51:31;;;;;;;14.50;12.60;;;13.90;99.90;;;13.42;95.71;100877.88;5016873;28;20623;-76
2023/05/11 08:54:05;;;;;;;16.20;13.10;;;13.90;99.90;;;13.45;95.61;100880.22;5016966;28;20211;-76
2023/05/11 08:56:40;;;;;;;15.07;11.87;;;13.90;99.90;;;13.46;95.34;100873.81;5016855;28;20211;-76
2023/05/11 08:59:17;;;;;;;12.77;10.93;;;14.00;99.90;;;13.50;95.04;100879.66;5016392;28;20648;-76
2023/05/11 09:01:52;;;;;;;14.20;11.03;;;14.00;99.90;;;13.49;95.61;100876.13;5016512;28;20563;-76
2023/05/11 09:04:25;;;;;;;12.40;10.47;;;14.00;99.90;;;13.48;95.52;100881.72;5016751;28;20225;-77
2023/05/11 09:07:00;;;;;;;12.93;10.10;;;14.00;99.90;;;13.48;95.41;100877.19;5016404;28;20188;-77
2023/05/11 09:09:33;;;;;;;12.27;10.40;;;14.00;99.90;;;13.49;94.58;100878.03;5016612;28;20310;-75
2023/05/11 09:12:07;;;;;;;18.60;12.87;;;14.00;99.90;;;13.50;94.79;100879.66;5016797;28;20192;-74
2023/05/11 09:14:39;;;;;;;10.43;9.37;;;14.00;99.90;;;13.51;94.49;100876.81;5016479;28;20196;-75
2023/05/11 09:17:11;;;;;;;11.27;9.40;;;14.00;99.90;;;13.53;94.30;100880.16;5016368;28;20199;-75
2023/05/11 09:20:03;;;;;;;12.20;10.07;;;14.00;99.90;;;13.57;94.27;100886.88;5016358;28;20231;-75
2023/05/11 09:22:40;;;;;;;9.63;8.53;;;14.00;99.90;;;13.53;94.39;100882.00;5017205;28;20195;-76
2023/05/11 09:25:16;;;;;;;10.60;8.40;;;14.00;99.90;;;13.55;94.25;100872.78;5016312;28;20191;-76
2023/05/11 09:27:51;;;;;;;11.07;8.67;;;14.00;99.90;;;13.55;94.42;100893.44;5016317;28;20191;-75
2023/05/11 09:30:25;;;;;;;13.27;11.43;;;14.00;99.90;;;13.53;94.49;100873.94;5016203;28;20630;-75
2023/05/11 09:33:01;;;;;;;11.77;8.63;;;14.00;99.90;;;13.53;94.94;100882.84;5015890;28;20218;-75
2023/05/11 09:35:35;;;;;;;10.07;8.63;;;14.00;99.90;;;13.51;95.31;100876.81;5016324;28;20242;-75
2023/05/11 09:38:11;;;;;;;10.43;8.10;;;14.00;99.90;;;13.52;94.70;100886.56;5016479;28;20192;-76
2023/05/11 09:40:50;;;;;;;9.87;8.60;;;14.00;99.90;;;13.52;94.59;100873.13;5016176;28;20234;-75
2023/05/11 09:43:28;;;;;;;10.70;8.40;;;14.00;99.90;;;13.55;94.80;100883.53;5016128;28;20198;-75
2023/05/11 09:46:05;;;;;;;10.57;9.07;;;14.00;99.90;;;13.55;95.16;100878.16;5016741;28;20199;-76
2023/05/11 09:48:38;;;;;;;10.87;9.50;;;14.00;99.90;;;13.54;95.18;100879.16;5015933;28;20246;-76
2023/05/11 09:51:10;;;;;;;12.90;9.47;;;14.00;99.90;;;13.55;94.83;100882.69;5016426;28;20231;-75
2023/05/11 09:53:44;;;;;;;12.03;9.30;;;14.00;99.90;;;13.55;95.89;100880.00;5016189;28;20207;-76
2023/05/11 09:56:17;;;;;;;12.03;9.43;;;14.00;99.90;;;13.56;95.39;100877.13;5016137;28;20214;-76
2023/05/11 09:58:56;;;;;;;10.93;9.00;;;14.10;99.90;;;13.53;95.52;100879.31;5016185;28;20203;-76
2023/05/11 10:01:36;;;;;;;12.03;9.63;;;14.00;99.90;;;13.55;95.06;100872.78;5015823;28;20227;-76
2023/05/11 10:04:09;;;;;;;12.07;8.70;;;14.00;99.90;;;13.58;95.60;100877.78;5015721;28;20195;-76
2023/05/11 10:06:55;;;;;;;12.00;9.50;;;14.00;99.90;;;13.60;95.10;100867.69;5015556;28;20198;-75
2023/05/11 10:09:28;;;;;;;11.60;9.20;;;14.10;99.90;;;13.59;95.27;100874.09;5015688;28;20192;-75
2023/05/11 10:12:01;;;;;;;11.90;9.40;;;14.10;99.90;;;13.59;95.54;100874.09;5015489;28;20200;-76
2023/05/11 10:14:36;;;;;;;12.03;9.57;;;14.00;99.90;;;13.60;95.81;100877.59;5015346;28;20199;-76
2023/05/11 10:17:10;;;;;;;9.40;8.07;;;14.00;99.90;;;13.56;95.71;100874.44;5015496;28;20222;-77
2023/05/11 10:19:42;;;;;;;10.47;8.00;;;14.00;99.90;;;13.54;95.50;100876.47;5015269;28;20231;-76
2023/05/11 10:22:15;;;;;;;9.13;7.97;;;14.00;99.90;;;13.55;96.08;100872.78;5015159;28;20200;-76
2023/05/11 10:24:48;;;;;;;11.13;8.37;;;14.00;99.90;;;13.59;95.83;100867.88;5015251;28;20191;-75
2023/05/11 10:27:20;;;;;;;10.37;8.10;;;14.00;99.90;;;13.60;95.73;100865.00;5014898;28;20557;-75